Portada
METAR-TAF:

METAR-TAF

Aeropuertos :

Karachi, Pakistán

Aeropuerto Internacional Jinnah

latitud: 24-54N, longitud: 067-08E, altitud: 21 m

Observación

El informe se hizo hace 35 minutos, a las 12:25 UTC
Viento 10 kt del oeste-suroeste
Temperatura 35°C
Humedad 30%
Presión 1011 hPa
Visibilidad: 6000 m

METAR: OPKC 261225Z 24010KT 6000 NSC 35/15 Q1011 NOSIG

Hora: 18:00 (13:00 UTC)

Pronóstico

El informe se hizo hace 3 horas y 0 minutos, a las 10:00 UTC
Pronóstico válido del 26 a las 12 UTC al 27 a las 18 UTC
Viento 10 kt del oeste-suroeste con ráfagas de 20 kt
Visibilidad: 6000 m
Evolucionando progresivamente
del 26 a las 19 UTC al 26 a las 21 UTC
Viento 5 kt del oeste con ráfagas de 15 kt
Visibilidad: 5000 m
calima
A partir de las 27 a las 0500 UTC
Viento 10 kt del oeste-suroeste con ráfagas de 20 kt
Visibilidad: 6000 m

TAF: OPKC 261000Z 2612/2718 25010G20KT 6000 NSC BECMG 2619/2621 27005G15KT 5000 HZ NSC FM270500 25010G20KT 6000 NSC

Observaciones y pronósticos meteorológicos de más de 4000 aeropuertos (mensajes METAR y TAF).

Los puntos amarillos y rojos representan las estaciones disponibles.

Ponga el ratón en el punto deseado para ver el nombre de la estación.

Haga clic para ver las observaciones y los pronósticos meteorológicos.

Para cambiar el mapa : haga clic en los botones verdes con una cruz de color negro para hacer un zoom, en el botón verde con un guión para alejar o en las flechas verdes para mapas adyacentes.


METAR-TAF: